sensor_id;sensor_type;location;lat;lon;timestamp;temperature;humidity
57466;DHT22;67033;44.984;20.068;2023-04-03T00:01:01;11.20;99.90
57466;DHT22;67033;44.984;20.068;2023-04-03T00:03:27;11.20;99.90
57466;DHT22;67033;44.984;20.068;2023-04-03T00:05:53;11.30;99.90
57466;DHT22;67033;44.984;20.068;2023-04-03T00:08:19;11.30;99.90
57466;DHT22;67033;44.984;20.068;2023-04-03T00:10:45;11.30;99.90
57466;DHT22;67033;44.984;20.068;2023-04-03T00:40:04;11.10;99.90
57466;DHT22;67033;44.984;20.068;2023-04-03T00:42:30;10.20;99.90
57466;DHT22;67033;44.984;20.068;2023-04-03T00:47:22;10.00;99.90
57466;DHT22;67033;44.984;20.068;2023-04-03T00:49:49;9.90;99.90
57466;DHT22;67033;44.984;20.068;2023-04-03T00:52:19;9.90;99.90
57466;DHT22;67033;44.984;20.068;2023-04-03T00:54:48;9.90;99.90
57466;DHT22;67033;44.984;20.068;2023-04-03T00:57:16;9.90;99.90
57466;DHT22;67033;44.984;20.068;2023-04-03T00:59:46;9.90;99.90
57466;DHT22;67033;44.984;20.068;2023-04-03T01:02:15;9.70;99.90
57466;DHT22;67033;44.984;20.068;2023-04-03T01:04:42;9.70;99.90
57466;DHT22;67033;44.984;20.068;2023-04-03T01:07:11;9.70;99.90
57466;DHT22;67033;44.984;20.068;2023-04-03T01:09:39;9.70;99.90
57466;DHT22;67033;44.984;20.068;2023-04-03T01:12:16;9.50;99.90
57466;DHT22;67033;44.984;20.068;2023-04-03T08:36:05;10.40;99.90
57466;DHT22;67033;44.984;20.068;2023-04-03T08:38:31;10.30;99.90
57466;DHT22;67033;44.984;20.068;2023-04-03T08:41:04;10.40;99.90
57466;DHT22;67033;44.984;20.068;2023-04-03T08:53:30;10.80;99.90
57466;DHT22;67033;44.984;20.068;2023-04-03T08:55:58;12.40;99.90
57466;DHT22;67033;44.984;20.068;2023-04-03T08:58:30;12.30;99.90
57466;DHT22;67033;44.984;20.068;2023-04-03T09:03:34;12.70;99.40
57466;DHT22;67033;44.984;20.068;2023-04-03T09:06:23;12.30;95.80
57466;DHT22;67033;44.984;20.068;2023-04-03T09:12:03;12.30;97.30
57466;DHT22;67033;44.984;20.068;2023-04-03T09:17:09;12.50;99.90
57466;DHT22;67033;44.984;20.068;2023-04-03T09:19:51;12.50;98.00
57466;DHT22;67033;44.984;20.068;2023-04-03T09:22:21;12.30;99.90
57466;DHT22;67033;44.984;20.068;2023-04-03T09:24:57;12.10;96.70
57466;DHT22;67033;44.984;20.068;2023-04-03T09:27:24;11.90;95.60
57466;DHT22;67033;44.984;20.068;2023-04-03T09:29:53;12.00;95.40
57466;DHT22;67033;44.984;20.068;2023-04-03T09:32:26;11.90;95.30
57466;DHT22;67033;44.984;20.068;2023-04-03T09:34:55;11.70;95.30
57466;DHT22;67033;44.984;20.068;2023-04-03T09:37:43;11.90;97.60
57466;DHT22;67033;44.984;20.068;2023-04-03T09:40:35;12.00;97.00
57466;DHT22;67033;44.984;20.068;2023-04-03T09:43:21;12.30;96.80
57466;DHT22;67033;44.984;20.068;2023-04-03T09:45:49;12.70;95.20
57466;DHT22;67033;44.984;20.068;2023-04-03T09:48:24;12.80;94.80
57466;DHT22;67033;44.984;20.068;2023-04-03T09:55:59;12.80;90.40
57466;DHT22;67033;44.984;20.068;2023-04-03T09:58:39;13.00;99.90
57466;DHT22;67033;44.984;20.068;2023-04-03T10:01:29;13.20;93.90
57466;DHT22;67033;44.984;20.068;2023-04-03T10:06:48;13.60;93.30
57466;DHT22;67033;44.984;20.068;2023-04-03T10:09:24;13.60;91.60
57466;DHT22;67033;44.984;20.068;2023-04-03T10:14:34;13.10;90.60
57466;DHT22;67033;44.984;20.068;2023-04-03T10:33:55;12.70;89.50
57466;DHT22;67033;44.984;20.068;2023-04-03T10:42:13;13.00;92.20
57466;DHT22;67033;44.984;20.068;2023-04-03T10:48:29;13.10;91.60
57466;DHT22;67033;44.984;20.068;2023-04-03T10:55:40;13.10;91.40
57466;DHT22;67033;44.984;20.068;2023-04-03T10:59:00;13.10;90.20
57466;DHT22;67033;44.984;20.068;2023-04-03T11:01:06;13.90;89.80
57466;DHT22;67033;44.984;20.068;2023-04-03T11:03:43;14.20;90.50
57466;DHT22;67033;44.984;20.068;2023-04-03T11:06:13;14.20;87.80
57466;DHT22;67033;44.984;20.068;2023-04-03T11:08:50;14.00;83.60
57466;DHT22;67033;44.984;20.068;2023-04-03T11:11:26;14.00;90.30
57466;DHT22;67033;44.984;20.068;2023-04-03T11:14:29;14.30;90.90
57466;DHT22;67033;44.984;20.068;2023-04-03T11:22:30;13.40;84.90
57466;DHT22;67033;44.984;20.068;2023-04-03T11:28:03;12.90;88.50
57466;DHT22;67033;44.984;20.068;2023-04-03T11:30:49;13.20;90.70
57466;DHT22;67033;44.984;20.068;2023-04-03T11:36:25;13.60;92.00
57466;DHT22;67033;44.984;20.068;2023-04-03T11:38:55;13.80;93.50
57466;DHT22;67033;44.984;20.068;2023-04-03T11:41:28;13.60;90.40
57466;DHT22;67033;44.984;20.068;2023-04-03T11:44:02;13.90;89.40
57466;DHT22;67033;44.984;20.068;2023-04-03T11:46:51;13.40;89.10
57466;DHT22;67033;44.984;20.068;2023-04-03T12:13:42;13.50;90.20
57466;DHT22;67033;44.984;20.068;2023-04-03T12:29:55;13.20;88.50
57466;DHT22;67033;44.984;20.068;2023-04-03T12:46:48;12.80;90.00
57466;DHT22;67033;44.984;20.068;2023-04-03T12:51:54;12.50;92.50
57466;DHT22;67033;44.984;20.068;2023-04-03T12:57:27;12.50;93.50
57466;DHT22;67033;44.984;20.068;2023-04-03T12:59:55;12.50;92.50
57466;DHT22;67033;44.984;20.068;2023-04-03T13:02:31;12.40;93.00
57466;DHT22;67033;44.984;20.068;2023-04-03T13:05:04;12.30;91.70
57466;DHT22;67033;44.984;20.068;2023-04-03T13:07:33;12.20;91.70
57466;DHT22;67033;44.984;20.068;2023-04-03T13:12:26;12.10;93.00
57466;DHT22;67033;44.984;20.068;2023-04-03T13:14:58;12.30;93.40
57466;DHT22;67033;44.984;20.068;2023-04-03T13:17:26;12.10;91.10
57466;DHT22;67033;44.984;20.068;2023-04-03T13:19:53;12.10;91.40
57466;DHT22;67033;44.984;20.068;2023-04-03T13:22:33;11.90;91.50
57466;DHT22;67033;44.984;20.068;2023-04-03T13:25:06;11.80;92.20
57466;DHT22;67033;44.984;20.068;2023-04-03T13:27:33;11.90;91.80
57466;DHT22;67033;44.984;20.068;2023-04-03T13:30:01;12.00;91.30
57466;DHT22;67033;44.984;20.068;2023-04-03T13:32:30;12.00;91.40
57466;DHT22;67033;44.984;20.068;2023-04-03T13:34:56;12.10;91.70
57466;DHT22;67033;44.984;20.068;2023-04-03T13:37:32;12.10;90.60
57466;DHT22;67033;44.984;20.068;2023-04-03T13:42:36;12.00;90.50
57466;DHT22;67033;44.984;20.068;2023-04-03T13:45:24;11.90;86.00
57466;DHT22;67033;44.984;20.068;2023-04-03T13:48:07;12.20;87.20
57466;DHT22;67033;44.984;20.068;2023-04-03T13:50:33;12.10;88.10
57466;DHT22;67033;44.984;20.068;2023-04-03T13:53:15;12.10;88.80
57466;DHT22;67033;44.984;20.068;2023-04-03T13:58:28;12.30;91.10
57466;DHT22;67033;44.984;20.068;2023-04-03T14:03:31;12.30;89.30
57466;DHT22;67033;44.984;20.068;2023-04-03T14:05:58;12.30;87.00
57466;DHT22;67033;44.984;20.068;2023-04-03T14:08:24;12.20;90.40
57466;DHT22;67033;44.984;20.068;2023-04-03T14:10:51;12.20;87.30
57466;DHT22;67033;44.984;20.068;2023-04-03T14:13:19;11.90;85.60
57466;DHT22;67033;44.984;20.068;2023-04-03T14:15:46;12.00;89.70
57466;DHT22;67033;44.984;20.068;2023-04-03T14:18:16;12.00;88.30
57466;DHT22;67033;44.984;20.068;2023-04-03T14:20:42;11.90;86.90
57466;DHT22;67033;44.984;20.068;2023-04-03T14:23:09;12.00;88.00
57466;DHT22;67033;44.984;20.068;2023-04-03T14:25:36;12.00;88.40
57466;DHT22;67033;44.984;20.068;2023-04-03T14:28:15;12.10;91.00
57466;DHT22;67033;44.984;20.068;2023-04-03T14:30:41;12.20;91.10
57466;DHT22;67033;44.984;20.068;2023-04-03T14:33:14;12.30;89.90
57466;DHT22;67033;44.984;20.068;2023-04-03T14:35:41;12.20;88.20
57466;DHT22;67033;44.984;20.068;2023-04-03T14:38:26;12.30;88.70
57466;DHT22;67033;44.984;20.068;2023-04-03T14:40:54;12.20;88.40
57466;DHT22;67033;44.984;20.068;2023-04-03T14:43:20;12.20;85.80
57466;DHT22;67033;44.984;20.068;2023-04-03T14:45:48;12.10;85.70
57466;DHT22;67033;44.984;20.068;2023-04-03T14:48:20;12.20;89.10
57466;DHT22;67033;44.984;20.068;2023-04-03T14:50:47;12.00;86.30
57466;DHT22;67033;44.984;20.068;2023-04-03T14:53:14;11.90;87.40
57466;DHT22;67033;44.984;20.068;2023-04-03T14:55:44;12.20;89.60
57466;DHT22;67033;44.984;20.068;2023-04-03T14:58:16;12.20;90.00
57466;DHT22;67033;44.984;20.068;2023-04-03T15:00:43;12.20;88.80
57466;DHT22;67033;44.984;20.068;2023-04-03T15:03:21;11.80;87.30
57466;DHT22;67033;44.984;20.068;2023-04-03T15:05:49;11.70;86.10
57466;DHT22;67033;44.984;20.068;2023-04-03T15:08:21;11.70;87.50
57466;DHT22;67033;44.984;20.068;2023-04-03T15:10:50;11.70;88.20
57466;DHT22;67033;44.984;20.068;2023-04-03T15:13:18;11.60;86.20
57466;DHT22;67033;44.984;20.068;2023-04-03T15:15:45;11.40;86.90
57466;DHT22;67033;44.984;20.068;2023-04-03T15:18:20;11.40;87.80
57466;DHT22;67033;44.984;20.068;2023-04-03T15:20:47;11.40;84.90
57466;DHT22;67033;44.984;20.068;2023-04-03T15:23:14;11.40;86.10
57466;DHT22;67033;44.984;20.068;2023-04-03T15:25:42;11.30;85.10
57466;DHT22;67033;44.984;20.068;2023-04-03T15:28:18;11.20;86.30
57466;DHT22;67033;44.984;20.068;2023-04-03T15:33:10;11.10;87.00
57466;DHT22;67033;44.984;20.068;2023-04-03T15:35:36;11.10;86.80
57466;DHT22;67033;44.984;20.068;2023-04-03T15:38:02;10.90;86.70
57466;DHT22;67033;44.984;20.068;2023-04-03T15:40:28;11.00;86.70
57466;DHT22;67033;44.984;20.068;2023-04-03T15:42:54;10.90;88.10
57466;DHT22;67033;44.984;20.068;2023-04-03T15:45:20;10.90;90.20
57466;DHT22;67033;44.984;20.068;2023-04-03T15:47:46;10.80;86.70
57466;DHT22;67033;44.984;20.068;2023-04-03T15:50:12;10.80;85.80
57466;DHT22;67033;44.984;20.068;2023-04-03T15:52:38;10.90;87.00
57466;DHT22;67033;44.984;20.068;2023-04-03T15:55:05;10.90;87.80
57466;DHT22;67033;44.984;20.068;2023-04-03T16:04:54;10.80;87.60
57466;DHT22;67033;44.984;20.068;2023-04-03T16:07:20;11.00;86.60
57466;DHT22;67033;44.984;20.068;2023-04-03T16:09:46;10.60;86.30
57466;DHT22;67033;44.984;20.068;2023-04-03T16:12:12;10.60;86.10
57466;DHT22;67033;44.984;20.068;2023-04-03T16:14:38;10.70;96.70
57466;DHT22;67033;44.984;20.068;2023-04-03T16:17:04;10.50;87.80
57466;DHT22;67033;44.984;20.068;2023-04-03T16:19:30;10.60;87.60
57466;DHT22;67033;44.984;20.068;2023-04-03T16:21:56;10.50;87.90
57466;DHT22;67033;44.984;20.068;2023-04-03T16:24:22;10.50;87.50
57466;DHT22;67033;44.984;20.068;2023-04-03T16:26:48;10.50;88.80
57466;DHT22;67033;44.984;20.068;2023-04-03T16:29:14;10.40;87.70
57466;DHT22;67033;44.984;20.068;2023-04-03T16:31:40;10.30;88.40
57466;DHT22;67033;44.984;20.068;2023-04-03T16:34:06;10.30;88.80
57466;DHT22;67033;44.984;20.068;2023-04-03T16:36:31;10.30;89.10
57466;DHT22;67033;44.984;20.068;2023-04-03T16:38:57;10.20;90.10
57466;DHT22;67033;44.984;20.068;2023-04-03T16:41:23;10.20;90.90
57466;DHT22;67033;44.984;20.068;2023-04-03T16:43:49;10.30;92.50
57466;DHT22;67033;44.984;20.068;2023-04-03T16:46:15;10.30;91.00
57466;DHT22;67033;44.984;20.068;2023-04-03T16:48:41;10.20;90.50
57466;DHT22;67033;44.984;20.068;2023-04-03T16:51:07;10.20;91.40
57466;DHT22;67033;44.984;20.068;2023-04-03T16:53:33;10.20;91.40
57466;DHT22;67033;44.984;20.068;2023-04-03T16:55:59;10.10;91.10
57466;DHT22;67033;44.984;20.068;2023-04-03T16:58:25;10.10;91.50
57466;DHT22;67033;44.984;20.068;2023-04-03T17:00:51;10.10;92.50
57466;DHT22;67033;44.984;20.068;2023-04-03T17:03:17;10.00;91.60
57466;DHT22;67033;44.984;20.068;2023-04-03T17:05:42;10.00;91.20
57466;DHT22;67033;44.984;20.068;2023-04-03T17:08:11;9.90;91.20
57466;DHT22;67033;44.984;20.068;2023-04-03T17:10:39;9.90;91.90
57466;DHT22;67033;44.984;20.068;2023-04-03T17:13:05;9.90;92.30
57466;DHT22;67033;44.984;20.068;2023-04-03T17:15:30;9.90;92.90
57466;DHT22;67033;44.984;20.068;2023-04-03T17:17:56;9.80;93.50
57466;DHT22;67033;44.984;20.068;2023-04-03T17:20:22;9.70;93.50
57466;DHT22;67033;44.984;20.068;2023-04-03T17:22:48;9.80;94.30
57466;DHT22;67033;44.984;20.068;2023-04-03T17:25:14;9.80;92.40
57466;DHT22;67033;44.984;20.068;2023-04-03T17:27:40;9.70;92.70
57466;DHT22;67033;44.984;20.068;2023-04-03T17:30:07;9.80;92.50
57466;DHT22;67033;44.984;20.068;2023-04-03T17:32:33;9.70;93.00
57466;DHT22;67033;44.984;20.068;2023-04-03T17:34:59;9.70;92.60
57466;DHT22;67033;44.984;20.068;2023-04-03T17:37:25;9.70;92.20
57466;DHT22;67033;44.984;20.068;2023-04-03T17:39:50;9.70;99.90
57466;DHT22;67033;44.984;20.068;2023-04-03T17:42:16;9.60;92.00
57466;DHT22;67033;44.984;20.068;2023-04-03T17:44:42;9.60;92.00
57466;DHT22;67033;44.984;20.068;2023-04-03T17:47:08;9.50;93.00
57466;DHT22;67033;44.984;20.068;2023-04-03T17:49:34;9.50;93.10
57466;DHT22;67033;44.984;20.068;2023-04-03T17:52:00;9.40;93.60
57466;DHT22;67033;44.984;20.068;2023-04-03T17:54:26;9.40;94.30
57466;DHT22;67033;44.984;20.068;2023-04-03T17:56:51;9.50;94.90
57466;DHT22;67033;44.984;20.068;2023-04-03T17:59:17;9.40;95.70
57466;DHT22;67033;44.984;20.068;2023-04-03T18:01:45;9.40;95.20
